sensor_id;sensor_type;location;lat;lon;timestamp;P1;durP1;ratioP1;P2;durP2;ratioP2
21517;SDS011;61765;45.794;24.150;2024-03-25T00:06:36;6.70;;;4.68;;
21517;SDS011;61765;45.794;24.150;2024-03-25T00:14:40;6.72;;;3.83;;
21517;SDS011;61765;45.794;24.150;2024-03-25T00:22:42;5.75;;;4.07;;
21517;SDS011;61765;45.794;24.150;2024-03-25T00:30:47;5.28;;;4.00;;
21517;SDS011;61765;45.794;24.150;2024-03-25T00:38:49;5.95;;;3.58;;
21517;SDS011;61765;45.794;24.150;2024-03-25T00:46:53;3.85;;;3.10;;
21517;SDS011;61765;45.794;24.150;2024-03-25T00:54:55;4.45;;;3.15;;
21517;SDS011;61765;45.794;24.150;2024-03-25T01:03:00;3.50;;;2.80;;
21517;SDS011;61765;45.794;24.150;2024-03-25T01:11:02;4.60;;;3.17;;
21517;SDS011;61765;45.794;24.150;2024-03-25T01:19:07;4.22;;;3.13;;
21517;SDS011;61765;45.794;24.150;2024-03-25T01:27:09;5.00;;;3.03;;
21517;SDS011;61765;45.794;24.150;2024-03-25T01:35:13;6.07;;;3.42;;
21517;SDS011;61765;45.794;24.150;2024-03-25T01:43:16;4.50;;;3.20;;
21517;SDS011;61765;45.794;24.150;2024-03-25T01:51:21;5.78;;;4.00;;
21517;SDS011;61765;45.794;24.150;2024-03-25T01:59:24;5.72;;;4.32;;
21517;SDS011;61765;45.794;24.150;2024-03-25T02:07:29;5.37;;;4.20;;
21517;SDS011;61765;45.794;24.150;2024-03-25T02:15:32;8.30;;;5.32;;
21517;SDS011;61765;45.794;24.150;2024-03-25T02:23:39;7.90;;;5.00;;
21517;SDS011;61765;45.794;24.150;2024-03-25T02:31:46;7.85;;;4.90;;
21517;SDS011;61765;45.794;24.150;2024-03-25T02:39:48;8.35;;;5.05;;
21517;SDS011;61765;45.794;24.150;2024-03-25T02:47:53;6.45;;;4.85;;
21517;SDS011;61765;45.794;24.150;2024-03-25T02:55:55;9.25;;;5.07;;
21517;SDS011;61765;45.794;24.150;2024-03-25T03:03:59;6.70;;;4.50;;
21517;SDS011;61765;45.794;24.150;2024-03-25T03:12:01;5.72;;;4.47;;
21517;SDS011;61765;45.794;24.150;2024-03-25T03:20:07;8.05;;;4.78;;
21517;SDS011;61765;45.794;24.150;2024-03-25T03:28:09;8.18;;;4.78;;
21517;SDS011;61765;45.794;24.150;2024-03-25T03:36:14;7.18;;;4.18;;
21517;SDS011;61765;45.794;24.150;2024-03-25T03:44:16;9.95;;;4.72;;
21517;SDS011;61765;45.794;24.150;2024-03-25T03:52:21;8.60;;;4.55;;
21517;SDS011;61765;45.794;24.150;2024-03-25T04:00:23;7.03;;;4.40;;
21517;SDS011;61765;45.794;24.150;2024-03-25T04:08:27;7.15;;;4.47;;
21517;SDS011;61765;45.794;24.150;2024-03-25T04:16:29;7.10;;;4.20;;
21517;SDS011;61765;45.794;24.150;2024-03-25T04:24:34;5.47;;;4.43;;
21517;SDS011;61765;45.794;24.150;2024-03-25T04:32:36;4.80;;;3.67;;
21517;SDS011;61765;45.794;24.150;2024-03-25T04:40:41;4.10;;;3.42;;
21517;SDS011;61765;45.794;24.150;2024-03-25T04:48:43;5.43;;;3.95;;
21517;SDS011;61765;45.794;24.150;2024-03-25T04:56:47;6.03;;;4.07;;
21517;SDS011;61765;45.794;24.150;2024-03-25T05:04:49;6.53;;;4.47;;
21517;SDS011;61765;45.794;24.150;2024-03-25T05:12:54;5.80;;;3.30;;
21517;SDS011;61765;45.794;24.150;2024-03-25T05:20:56;5.88;;;3.65;;
21517;SDS011;61765;45.794;24.150;2024-03-25T05:29:01;4.53;;;3.80;;
21517;SDS011;61765;45.794;24.150;2024-03-25T05:37:03;7.22;;;4.43;;
21517;SDS011;61765;45.794;24.150;2024-03-25T05:45:08;6.40;;;4.10;;
21517;SDS011;61765;45.794;24.150;2024-03-25T05:53:10;7.10;;;5.22;;
21517;SDS011;61765;45.794;24.150;2024-03-25T06:01:15;10.23;;;5.15;;
21517;SDS011;61765;45.794;24.150;2024-03-25T06:09:17;6.10;;;4.03;;
21517;SDS011;61765;45.794;24.150;2024-03-25T06:17:21;5.82;;;4.18;;
21517;SDS011;61765;45.794;24.150;2024-03-25T06:25:23;5.07;;;4.07;;
21517;SDS011;61765;45.794;24.150;2024-03-25T06:33:28;6.55;;;4.20;;
21517;SDS011;61765;45.794;24.150;2024-03-25T06:41:45;7.95;;;4.95;;
21517;SDS011;61765;45.794;24.150;2024-03-25T06:49:49;10.80;;;4.75;;
21517;SDS011;61765;45.794;24.150;2024-03-25T06:57:51;5.65;;;4.38;;
21517;SDS011;61765;45.794;24.150;2024-03-25T07:05:56;4.72;;;4.07;;
21517;SDS011;61765;45.794;24.150;2024-03-25T07:13:58;6.82;;;4.97;;
21517;SDS011;61765;45.794;24.150;2024-03-25T07:22:03;9.30;;;6.55;;
21517;SDS011;61765;45.794;24.150;2024-03-25T07:30:06;7.68;;;5.72;;
21517;SDS011;61765;45.794;24.150;2024-03-25T07:46:13;8.63;;;5.13;;
21517;SDS011;61765;45.794;24.150;2024-03-25T07:54:18;9.55;;;6.50;;
21517;SDS011;61765;45.794;24.150;2024-03-25T08:02:20;13.63;;;8.32;;
21517;SDS011;61765;45.794;24.150;2024-03-25T08:10:25;10.68;;;7.28;;
21517;SDS011;61765;45.794;24.150;2024-03-25T08:18:27;15.43;;;7.88;;
21517;SDS011;61765;45.794;24.150;2024-03-25T08:26:31;7.43;;;5.07;;
21517;SDS011;61765;45.794;24.150;2024-03-25T08:34:33;10.85;;;5.25;;
21517;SDS011;61765;45.794;24.150;2024-03-25T08:42:38;6.65;;;4.18;;
21517;SDS011;61765;45.794;24.150;2024-03-25T08:50:40;11.65;;;4.97;;
21517;SDS011;61765;45.794;24.150;2024-03-25T08:58:45;9.77;;;3.38;;
21517;SDS011;61765;45.794;24.150;2024-03-25T09:06:47;8.13;;;3.60;;
21517;SDS011;61765;45.794;24.150;2024-03-25T09:14:51;5.68;;;2.83;;
21517;SDS011;61765;45.794;24.150;2024-03-25T09:22:53;5.57;;;2.75;;
21517;SDS011;61765;45.794;24.150;2024-03-25T09:30:58;6.35;;;2.92;;
21517;SDS011;61765;45.794;24.150;2024-03-25T09:39:00;5.30;;;2.42;;
21517;SDS011;61765;45.794;24.150;2024-03-25T09:47:04;5.97;;;3.05;;
21517;SDS011;61765;45.794;24.150;2024-03-25T09:55:07;5.32;;;2.10;;
21517;SDS011;61765;45.794;24.150;2024-03-25T10:03:12;2.23;;;2.03;;
21517;SDS011;61765;45.794;24.150;2024-03-25T10:11:15;4.10;;;2.70;;
21517;SDS011;61765;45.794;24.150;2024-03-25T10:19:20;6.45;;;1.80;;
21517;SDS011;61765;45.794;24.150;2024-03-25T10:27:22;10.48;;;1.80;;
21517;SDS011;61765;45.794;24.150;2024-03-25T10:35:28;6.77;;;3.40;;
21517;SDS011;61765;45.794;24.150;2024-03-25T10:43:31;11.10;;;5.30;;
21517;SDS011;61765;45.794;24.150;2024-03-25T10:59:39;10.80;;;4.70;;
21517;SDS011;61765;45.794;24.150;2024-03-25T11:07:45;5.95;;;2.42;;
21517;SDS011;61765;45.794;24.150;2024-03-25T11:15:47;7.88;;;3.58;;
21517;SDS011;61765;45.794;24.150;2024-03-25T11:23:52;8.07;;;3.95;;
21517;SDS011;61765;45.794;24.150;2024-03-25T11:31:54;13.73;;;3.30;;
21517;SDS011;61765;45.794;24.150;2024-03-25T11:40:04;4.30;;;1.70;;
21517;SDS011;61765;45.794;24.150;2024-03-25T11:48:08;7.32;;;2.28;;
21517;SDS011;61765;45.794;24.150;2024-03-25T11:56:12;2.22;;;1.95;;
21517;SDS011;61765;45.794;24.150;2024-03-25T12:04:15;1.67;;;1.40;;
21517;SDS011;61765;45.794;24.150;2024-03-25T12:12:21;2.05;;;1.40;;
21517;SDS011;61765;45.794;24.150;2024-03-25T12:20:23;2.92;;;2.08;;
21517;SDS011;61765;45.794;24.150;2024-03-25T12:28:30;12.70;;;5.20;;
21517;SDS011;61765;45.794;24.150;2024-03-25T12:36:35;6.35;;;3.00;;
21517;SDS011;61765;45.794;24.150;2024-03-25T12:44:40;9.38;;;4.93;;
21517;SDS011;61765;45.794;24.150;2024-03-25T12:52:42;29.20;;;8.90;;
21517;SDS011;61765;45.794;24.150;2024-03-25T13:00:47;12.35;;;3.97;;
21517;SDS011;61765;45.794;24.150;2024-03-25T13:08:49;8.32;;;2.45;;
21517;SDS011;61765;45.794;24.150;2024-03-25T13:16:53;6.00;;;2.40;;
21517;SDS011;61765;45.794;24.150;2024-03-25T13:24:55;15.18;;;4.00;;
21517;SDS011;61765;45.794;24.150;2024-03-25T13:33:00;5.50;;;2.45;;
21517;SDS011;61765;45.794;24.150;2024-03-25T13:41:02;4.80;;;2.08;;
21517;SDS011;61765;45.794;24.150;2024-03-25T13:49:07;4.60;;;2.97;;
21517;SDS011;61765;45.794;24.150;2024-03-25T13:57:09;12.00;;;3.33;;
21517;SDS011;61765;45.794;24.150;2024-03-25T14:05:14;21.30;;;3.90;;
21517;SDS011;61765;45.794;24.150;2024-03-25T14:13:16;21.90;;;3.90;;
21517;SDS011;61765;45.794;24.150;2024-03-25T14:21:21;8.40;;;2.97;;
21517;SDS011;61765;45.794;24.150;2024-03-25T14:29:23;14.38;;;3.47;;
21517;SDS011;61765;45.794;24.150;2024-03-25T14:37:28;5.57;;;3.00;;
21517;SDS011;61765;45.794;24.150;2024-03-25T14:45:30;5.00;;;2.90;;
21517;SDS011;61765;45.794;24.150;2024-03-25T14:53:34;2.83;;;2.10;;
21517;SDS011;61765;45.794;24.150;2024-03-25T15:01:36;4.38;;;2.17;;
21517;SDS011;61765;45.794;24.150;2024-03-25T15:09:41;3.30;;;2.22;;
21517;SDS011;61765;45.794;24.150;2024-03-25T15:17:43;3.50;;;2.13;;
21517;SDS011;61765;45.794;24.150;2024-03-25T15:25:48;3.40;;;1.85;;
21517;SDS011;61765;45.794;24.150;2024-03-25T15:33:50;2.83;;;1.80;;
21517;SDS011;61765;45.794;24.150;2024-03-25T15:41:54;2.03;;;1.52;;
21517;SDS011;61765;45.794;24.150;2024-03-25T15:49:56;1.85;;;1.10;;
21517;SDS011;61765;45.794;24.150;2024-03-25T15:58:03;1.50;;;1.10;;
21517;SDS011;61765;45.794;24.150;2024-03-25T16:06:05;3.50;;;1.60;;
21517;SDS011;61765;45.794;24.150;2024-03-25T16:14:10;2.50;;;1.48;;
21517;SDS011;61765;45.794;24.150;2024-03-25T16:22:12;1.92;;;1.20;;
21517;SDS011;61765;45.794;24.150;2024-03-25T16:30:17;2.50;;;1.27;;
21517;SDS011;61765;45.794;24.150;2024-03-25T16:38:20;2.38;;;1.77;;
21517;SDS011;61765;45.794;24.150;2024-03-25T16:46:24;1.75;;;1.40;;
21517;SDS011;61765;45.794;24.150;2024-03-25T16:54:26;3.25;;;1.48;;
21517;SDS011;61765;45.794;24.150;2024-03-25T17:02:31;2.40;;;1.38;;
21517;SDS011;61765;45.794;24.150;2024-03-25T17:10:33;6.28;;;2.55;;
21517;SDS011;61765;45.794;24.150;2024-03-25T17:18:37;2.92;;;2.20;;
21517;SDS011;61765;45.794;24.150;2024-03-25T17:26:39;3.10;;;2.10;;
21517;SDS011;61765;45.794;24.150;2024-03-25T17:34:44;3.38;;;2.10;;
21517;SDS011;61765;45.794;24.150;2024-03-25T17:42:46;3.60;;;2.08;;
21517;SDS011;61765;45.794;24.150;2024-03-25T17:50:55;2.42;;;1.60;;
21517;SDS011;61765;45.794;24.150;2024-03-25T17:58:58;2.28;;;1.50;;
21517;SDS011;61765;45.794;24.150;2024-03-25T18:07:02;2.05;;;1.45;;
21517;SDS011;61765;45.794;24.150;2024-03-25T18:15:05;2.58;;;1.50;;
21517;SDS011;61765;45.794;24.150;2024-03-25T18:23:10;2.73;;;1.70;;
21517;SDS011;61765;45.794;24.150;2024-03-25T18:31:12;2.17;;;1.40;;
21517;SDS011;61765;45.794;24.150;2024-03-25T18:39:17;2.55;;;1.45;;
21517;SDS011;61765;45.794;24.150;2024-03-25T18:47:19;2.20;;;1.67;;
21517;SDS011;61765;45.794;24.150;2024-03-25T18:55:23;1.85;;;1.27;;
21517;SDS011;61765;45.794;24.150;2024-03-25T19:03:25;1.58;;;1.23;;
21517;SDS011;61765;45.794;24.150;2024-03-25T19:11:30;1.75;;;1.50;;
21517;SDS011;61765;45.794;24.150;2024-03-25T19:19:32;1.30;;;1.20;;
21517;SDS011;61765;45.794;24.150;2024-03-25T19:27:37;1.55;;;1.27;;
21517;SDS011;61765;45.794;24.150;2024-03-25T19:35:38;2.13;;;1.60;;
21517;SDS011;61765;45.794;24.150;2024-03-25T19:43:43;4.90;;;1.70;;
21517;SDS011;61765;45.794;24.150;2024-03-25T19:51:45;2.60;;;1.80;;
21517;SDS011;61765;45.794;24.150;2024-03-25T19:59:50;3.15;;;1.90;;
21517;SDS011;61765;45.794;24.150;2024-03-25T20:07:52;4.75;;;1.90;;
21517;SDS011;61765;45.794;24.150;2024-03-25T20:15:57;2.30;;;1.92;;
21517;SDS011;61765;45.794;24.150;2024-03-25T20:23:59;3.13;;;2.28;;
21517;SDS011;61765;45.794;24.150;2024-03-25T20:32:04;3.95;;;2.33;;
21517;SDS011;61765;45.794;24.150;2024-03-25T20:40:06;3.20;;;2.35;;
21517;SDS011;61765;45.794;24.150;2024-03-25T20:48:12;3.53;;;1.75;;
21517;SDS011;61765;45.794;24.150;2024-03-25T20:56:13;2.63;;;2.05;;
21517;SDS011;61765;45.794;24.150;2024-03-25T21:04:18;2.65;;;2.20;;
21517;SDS011;61765;45.794;24.150;2024-03-25T21:12:20;2.92;;;2.22;;
21517;SDS011;61765;45.794;24.150;2024-03-25T21:20:25;1.92;;;1.75;;
21517;SDS011;61765;45.794;24.150;2024-03-25T21:28:27;5.13;;;2.20;;
21517;SDS011;61765;45.794;24.150;2024-03-25T21:36:32;4.50;;;2.92;;
21517;SDS011;61765;45.794;24.150;2024-03-25T21:44:34;12.50;;;3.22;;
21517;SDS011;61765;45.794;24.150;2024-03-25T21:52:38;4.70;;;2.97;;
21517;SDS011;61765;45.794;24.150;2024-03-25T22:00:40;5.22;;;3.05;;
21517;SDS011;61765;45.794;24.150;2024-03-25T22:08:45;5.28;;;2.63;;
21517;SDS011;61765;45.794;24.150;2024-03-25T22:16:47;2.70;;;2.30;;
21517;SDS011;61765;45.794;24.150;2024-03-25T22:24:53;2.78;;;2.30;;
21517;SDS011;61765;45.794;24.150;2024-03-25T22:32:55;3.80;;;2.67;;
21517;SDS011;61765;45.794;24.150;2024-03-25T22:41:02;5.53;;;3.20;;
21517;SDS011;61765;45.794;24.150;2024-03-25T22:49:04;5.22;;;2.95;;
21517;SDS011;61765;45.794;24.150;2024-03-25T22:57:09;5.43;;;2.90;;
21517;SDS011;61765;45.794;24.150;2024-03-25T23:05:11;4.47;;;2.88;;
21517;SDS011;61765;45.794;24.150;2024-03-25T23:13:16;5.82;;;3.15;;
21517;SDS011;61765;45.794;24.150;2024-03-25T23:21:18;4.35;;;3.28;;
21517;SDS011;61765;45.794;24.150;2024-03-25T23:29:23;4.22;;;3.17;;
21517;SDS011;61765;45.794;24.150;2024-03-25T23:37:28;5.45;;;3.15;;
21517;SDS011;61765;45.794;24.150;2024-03-25T23:45:32;5.13;;;3.00;;
21517;SDS011;61765;45.794;24.150;2024-03-25T23:53:34;3.15;;;2.85;;
